Time;durP1;ratioP1;P1;durP2;ratioP2;P2;SDS_P1;SDS_P2;PMS_P1;PMS_P2;Temp;Humidity;BMP_temperature;BMP_pressure;BME280_temperature;BME280_humidity;BME280_pressure;Samples;Min_cycle;Max_cycle;Signal;HPM_P1;HPM_P2
2022/08/21 00:01:38;;;;;;;4.28;2.60;;;;;;;25.85;53.51;100765.63;5026932;28;20357;-81
2022/08/21 00:04:07;;;;;;;3.30;2.80;;;;;;;25.88;52.61;100770.66;5010701;28;20049;-80
2022/08/21 00:06:35;;;;;;;2.97;2.60;;;;;;;25.98;52.39;100788.03;5026882;28;20062;-81
2022/08/21 00:09:06;;;;;;;7.40;3.17;;;;;;;25.80;52.56;100753.56;5010232;28;20053;-81
2022/08/21 00:11:34;;;;;;;6.78;2.60;;;;;;;25.95;52.31;100771.38;5010279;28;20555;-80
2022/08/21 00:14:03;;;;;;;4.63;2.85;;;;;;;25.29;52.16;100664.44;5026699;28;20046;-80
2022/08/21 00:16:30;;;;;;;4.50;2.60;;;;;;;25.91;52.12;100765.56;5010509;28;20382;-81
2022/08/21 00:18:57;;;;;;;5.32;2.30;;;;;;;26.05;51.92;100789.84;5010214;28;20045;-82
2022/08/21 00:21:25;;;;;;;3.72;2.38;;;;;;;26.05;52.14;100784.38;5010725;28;20505;-79
2022/08/21 00:23:52;;;;;;;4.22;2.63;;;;;;;26.03;52.47;100779.19;5009693;28;20095;-81
2022/08/21 00:26:19;;;;;;;7.28;3.20;;;;;;;25.85;52.60;100760.19;5026527;28;20130;-80
2022/08/21 00:28:46;;;;;;;9.07;2.95;;;;;;;25.78;52.96;100750.25;5010084;28;20107;-80
2022/08/21 00:31:13;;;;;;;5.93;3.47;;;;;;;25.94;53.63;100786.00;5026141;28;20092;-80
2022/08/21 00:33:39;;;;;;;4.85;2.80;;;;;;;25.90;53.82;100785.66;5010080;28;20099;-79
2022/08/21 00:36:06;;;;;;;7.10;3.90;;;;;;;25.32;54.06;100705.59;5010093;28;20049;-81
2022/08/21 00:38:34;;;;;;;5.38;3.25;;;;;;;25.90;53.65;100787.53;5009890;28;20085;-81
2022/08/21 00:41:04;;;;;;;4.53;2.60;;;;;;;25.81;53.70;100773.44;5009998;28;20049;-80
2022/08/21 00:43:53;;;;;;;3.95;2.85;;;;;;;25.61;53.37;100749.28;5012606;28;20053;-80
2022/08/21 00:46:19;;;;;;;2.63;2.33;;;;;;;25.92;52.81;100779.97;5010051;28;20061;-79
2022/08/21 00:48:48;;;;;;;2.63;2.17;;;;;;;25.68;52.66;100750.00;5009902;28;20057;-81
2022/08/21 00:51:25;;;;;;;6.28;2.30;;;;;;;25.62;52.54;100731.06;5010196;28;20278;-79
2022/08/21 00:53:57;;;;;;;13.57;3.15;;;;;;;25.83;52.83;100778.63;5009953;28;20046;-79
2022/08/21 00:56:25;;;;;;;6.10;3.45;;;;;;;25.68;52.90;100744.56;5010018;28;20073;-80
2022/08/21 00:58:53;;;;;;;8.20;3.42;;;;;;;25.66;53.10;100743.97;5009298;28;20045;-81
2022/08/21 01:01:27;;;;;;;4.93;3.97;;;;;;;24.83;53.40;100606.19;5008896;28;20100;-80
2022/08/21 01:03:55;;;;;;;4.30;3.08;;;;;;;25.64;53.78;100743.38;4994602;28;20214;-80
2022/08/21 01:06:22;;;;;;;5.93;3.30;;;;;;;25.56;53.95;100736.38;5009557;28;20544;-80
2022/08/21 01:08:49;;;;;;;4.25;3.00;;;;;;;25.45;53.56;100715.41;5009684;28;20057;-81
2022/08/21 01:11:18;;;;;;;5.93;3.50;;;;;;;25.58;53.33;100733.41;5009222;28;20057;-78
2022/08/21 01:13:46;;;;;;;4.47;3.60;;;;;;;25.68;54.09;100760.88;5009338;28;20104;-78
2022/08/21 01:16:16;;;;;;;4.93;3.85;;;;;;;25.75;53.85;100774.34;5009182;28;20098;-80
2022/08/21 01:18:44;;;;;;;5.45;3.55;;;;;;;25.68;53.96;100771.75;5010740;28;20057;-80
2022/08/21 01:21:21;;;;;;;7.22;3.20;;;;;;;25.58;53.80;100745.13;5011312;28;20056;-82
2022/08/21 01:23:55;;;;;;;6.00;2.80;;;;;;;25.69;53.50;100764.41;5010976;28;20050;-81
2022/08/21 01:26:26;;;;;;;3.92;2.83;;;;;;;25.68;53.48;100755.44;5008929;28;20547;-78
2022/08/21 01:29:35;;;;;;;2.85;2.58;;;;;;;25.64;54.19;100765.13;5010338;28;20136;-82
2022/08/21 01:32:07;;;;;;;6.35;3.08;;;;;;;25.52;53.77;100751.47;5004288;28;20065;-80
2022/08/21 01:34:36;;;;;;;3.33;2.22;;;;;;;25.47;53.35;100742.38;5009178;28;20103;-81
2022/08/21 01:37:04;;;;;;;4.65;2.28;;;;;;;25.50;53.38;100758.22;5008999;28;20145;-80
2022/08/21 01:39:31;;;;;;;6.28;2.75;;;;;;;25.55;53.07;100766.50;5008810;28;20516;-81
2022/08/21 01:41:58;;;;;;;4.10;2.45;;;;;;;25.56;52.97;100768.16;5026667;28;20060;-80
2022/08/21 01:44:27;;;;;;;7.93;2.60;;;;;;;25.54;52.98;100759.41;5025502;28;20045;-79
2022/08/21 01:46:55;;;;;;;4.15;2.13;;;;;;;25.46;53.30;100746.13;5009696;28;20099;-80
2022/08/21 01:49:21;;;;;;;2.65;2.35;;;;;;;25.53;53.39;100768.63;5009383;28;20041;-80
2022/08/21 01:51:48;;;;;;;3.00;2.30;;;;;;;24.25;53.54;100566.84;5009773;28;20453;-81
2022/08/21 01:54:15;;;;;;;5.43;2.25;;;;;;;25.25;53.12;100729.31;5009151;28;20073;-80
2022/08/21 01:56:45;;;;;;;4.00;2.55;;;;;;;25.40;53.82;100760.66;5009536;28;20050;-79
2022/08/21 01:59:12;;;;;;;5.55;2.25;;;;;;;24.75;53.91;100661.63;5008906;28;20490;-80
2022/08/21 02:01:39;;;;;;;2.80;2.20;;;;;;;25.40;53.34;100757.94;5008843;28;20509;-80
2022/08/21 02:04:07;;;;;;;4.03;2.63;;;;;;;25.21;53.85;100733.53;5005163;28;20046;-80
2022/08/21 02:06:35;;;;;;;5.65;2.20;;;;;;;25.25;53.77;100745.59;5021928;28;20049;-81
2022/08/21 02:09:07;;;;;;;4.05;2.42;;;;;;;25.19;53.99;100743.78;5022001;28;20050;-80
2022/08/21 02:11:35;;;;;;;5.50;2.40;;;;;;;24.65;53.49;100661.34;5005365;28;20042;-79
2022/08/21 02:14:02;;;;;;;5.20;2.65;;;;;;;25.19;53.70;100746.50;5009121;28;20478;-79
2022/08/21 02:16:28;;;;;;;3.50;1.88;;;;;;;25.11;53.58;100744.09;5009405;28;20046;-80
2022/08/21 02:18:56;;;;;;;2.88;2.15;;;;;;;24.83;54.22;100698.47;5025187;28;20046;-80
2022/08/21 02:21:22;;;;;;;3.92;1.70;;;;;;;25.18;54.38;100755.72;5025403;28;20058;-79
2022/08/21 02:23:49;;;;;;;3.33;2.40;;;;;;;25.12;54.28;100756.59;5025522;28;20053;-79
2022/08/21 02:26:16;;;;;;;4.28;2.13;;;;;;;25.16;54.04;100752.38;5008856;28;20053;-81
2022/08/21 02:28:43;;;;;;;3.97;2.20;;;;;;;25.03;54.42;100734.38;5025574;28;20054;-81
2022/08/21 02:31:10;;;;;;;3.45;2.40;;;;;;;25.11;54.81;100754.94;5009432;28;20077;-79
2022/08/21 02:33:37;;;;;;;4.28;2.22;;;;;;;25.09;55.09;100757.88;5008656;28;20493;-81
2022/08/21 02:36:07;;;;;;;5.40;2.55;;;;;;;25.03;55.70;100755.28;5010219;28;20153;-80
2022/08/21 02:38:38;;;;;;;5.25;2.75;;;;;;;24.96;56.20;100749.91;5008987;28;20469;-81
2022/08/21 02:41:12;;;;;;;6.78;4.03;;;;;;;24.96;56.83;100752.63;5009985;28;20054;-82
2022/08/21 02:43:38;;;;;;;4.85;3.83;;;;;;;25.00;56.95;100753.00;5008764;28;20057;-81
2022/08/21 02:46:07;;;;;;;4.55;3.47;;;;;;;24.85;56.86;100737.91;5008693;28;20317;-80
2022/08/21 02:48:35;;;;;;;7.63;3.50;;;;;;;24.90;57.25;100740.81;5008580;28;20413;-80
2022/08/21 02:51:11;;;;;;;7.00;3.55;;;;;;;24.87;57.45;100738.53;5008806;28;20053;-80
2022/08/21 02:53:39;;;;;;;10.65;3.63;;;;;;;24.78;57.00;100739.88;5008189;28;20104;-80
2022/08/21 02:56:09;;;;;;;7.38;3.63;;;;;;;24.61;57.62;100717.13;5008305;28;20457;-79
2022/08/21 02:58:41;;;;;;;4.95;3.42;;;;;;;24.60;58.01;100729.06;5008574;28;20050;-80
2022/08/21 03:01:11;;;;;;;5.90;3.30;;;;;;;24.58;58.31;100747.44;5008307;28;20049;-81
2022/08/21 03:03:42;;;;;;;6.68;3.83;;;;;;;24.48;58.62;100740.63;4994002;28;20058;-79
2022/08/21 03:06:11;;;;;;;8.13;3.78;;;;;;;24.50;58.98;100748.56;4988405;28;20054;-81
2022/08/21 03:08:38;;;;;;;6.82;3.45;;;;;;;24.45;58.81;100745.66;4990310;28;20055;-81
2022/08/21 03:11:05;;;;;;;4.07;3.17;;;;;;;24.45;58.94;100745.66;4988251;28;20142;-80
2022/08/21 03:13:33;;;;;;;7.85;3.45;;;;;;;24.13;59.22;100701.53;4988776;28;20518;-81
2022/08/21 03:16:00;;;;;;;5.85;3.75;;;;;;;24.41;58.84;100755.31;4988149;28;20046;-81
2022/08/21 03:18:29;;;;;;;6.20;3.50;;;;;;;24.26;59.35;100737.50;4988932;28;20046;-82
2022/08/21 03:20:56;;;;;;;3.28;2.90;;;;;;;24.34;58.97;100743.69;4989210;28;20058;-81
2022/08/21 03:23:23;;;;;;;4.93;3.20;;;;;;;24.31;58.54;100744.97;4993682;28;20058;-82
2022/08/21 03:25:50;;;;;;;5.85;3.40;;;;;;;24.28;58.89;100746.25;5017505;28;20053;-81
2022/08/21 03:28:22;;;;;;;3.85;2.75;;;;;;;24.33;59.02;100752.91;4993963;28;20453;-82
2022/08/21 03:30:52;;;;;;;4.32;2.65;;;;;;;24.36;58.66;100747.84;5005264;28;20058;-80
2022/08/21 03:33:19;;;;;;;3.30;2.85;;;;;;;24.37;58.27;100746.78;4987534;28;20402;-80
2022/08/21 03:35:57;;;;;;;3.55;2.42;;;;;;;24.33;57.25;100740.16;5003919;28;20058;-81
2022/08/21 03:38:24;;;;;;;2.83;2.30;;;;;;;24.35;56.81;100739.94;4988378;28;20053;-80
2022/08/21 03:40:52;;;;;;;5.55;2.80;;;;;;;24.18;57.08;100726.13;4989565;28;20046;-80
2022/08/21 03:43:19;;;;;;;9.63;2.60;;;;;;;24.30;57.05;100737.91;5004296;28;20079;-80
2022/08/21 03:45:46;;;;;;;3.75;2.17;;;;;;;24.30;57.07;100744.16;5004381;28;20081;-81
2022/08/21 03:48:14;;;;;;;4.68;2.33;;;;;;;24.23;57.27;100732.53;5004264;28;20091;-80
2022/08/21 03:50:43;;;;;;;3.55;2.20;;;;;;;24.37;56.75;100744.09;4989161;28;20109;-81
2022/08/21 03:53:11;;;;;;;5.88;3.58;;;;;;;24.31;56.84;100723.25;4987703;28;20050;-80
2022/08/21 03:55:46;;;;;;;7.50;2.58;;;;;;;24.29;57.08;100737.03;4987798;28;20046;-81
2022/08/21 03:58:15;;;;;;;4.13;2.25;;;;;;;24.27;57.37;100735.59;4989080;28;20042;-80
2022/08/21 04:00:45;;;;;;;4.20;2.55;;;;;;;23.99;57.47;100693.53;4968010;28;20502;-81
2022/08/21 04:03:12;;;;;;;7.88;2.42;;;;;;;24.20;57.06;100738.41;4978892;28;20314;-80
2022/08/21 04:05:39;;;;;;;4.50;2.47;;;;;;;24.24;56.82;100744.19;4988671;28;20054;-81
2022/08/21 04:08:06;;;;;;;4.60;2.55;;;;;;;23.70;57.17;100656.25;5003762;28;20054;-80
2022/08/21 04:10:36;;;;;;;4.65;2.42;;;;;;;24.20;56.43;100743.84;5003934;28;20120;-81
2022/08/21 04:13:03;;;;;;;4.45;2.30;;;;;;;23.95;56.70;100707.75;4987438;28;20046;-80
2022/08/21 04:15:30;;;;;;;4.13;2.60;;;;;;;24.09;56.35;100737.22;5003723;28;20108;-80
2022/08/21 04:17:56;;;;;;;4.90;1.92;;;;;;;24.03;56.45;100731.88;5003581;28;20058;-80
2022/08/21 04:20:24;;;;;;;5.70;2.35;;;;;;;24.07;56.40;100743.94;5003355;28;20107;-81
2022/08/21 04:22:51;;;;;;;6.63;2.17;;;;;;;24.00;56.54;100738.56;5006701;28;20305;-80
2022/08/21 04:25:20;;;;;;;6.60;2.40;;;;;;;23.84;56.70;100706.59;5006713;28;20069;-81
2022/08/21 04:27:48;;;;;;;4.18;2.28;;;;;;;24.00;56.81;100735.84;5006542;28;20493;-80
2022/08/21 04:30:15;;;;;;;6.55;2.47;;;;;;;23.82;56.98;100709.53;5007809;28;20054;-80
2022/08/21 04:32:48;;;;;;;5.63;2.35;;;;;;;23.94;57.05;100734.03;5006601;28;20533;-80
2022/08/21 04:35:17;;;;;;;5.35;2.30;;;;;;;23.43;57.50;100661.88;5006405;28;20104;-79
2022/08/21 04:37:43;;;;;;;8.48;2.45;;;;;;;23.75;57.20;100716.06;5008292;28;20508;-79
2022/08/21 04:40:13;;;;;;;2.60;2.40;;;;;;;23.24;57.38;100637.41;5006588;28;20095;-80
2022/08/21 04:42:51;;;;;;;5.97;2.35;;;;;;;23.99;57.03;100758.59;5006408;28;20422;-82
2022/08/21 04:45:23;;;;;;;5.47;2.13;;;;;;;23.97;57.60;100760.69;5006385;28;20046;-80
2022/08/21 04:47:55;;;;;;;3.15;2.33;;;;;;;23.90;57.74;100743.66;5006449;28;20446;-80
2022/08/21 04:50:27;;;;;;;3.65;2.33;;;;;;;23.76;57.46;100725.84;5006066;28;20053;-80
2022/08/21 04:52:55;;;;;;;2.92;2.00;;;;;;;23.97;57.16;100760.69;5006117;28;20474;-81
2022/08/21 04:55:23;;;;;;;2.85;2.05;;;;;;;23.92;56.93;100746.97;5005963;28;20049;-80
2022/08/21 04:57:53;;;;;;;2.45;2.08;;;;;;;23.94;57.29;100758.44;5006104;28;20058;-81
2022/08/21 05:00:22;;;;;;;8.38;2.53;;;;;;;23.96;57.67;100759.06;5006028;28;20132;-80
2022/08/21 05:02:56;;;;;;;5.43;1.95;;;;;;;23.63;57.00;100694.22;5014847;28;20095;-81
2022/08/21 05:05:23;;;;;;;2.97;2.10;;;;;;;23.88;57.87;100737.63;5009246;28;20046;-80
2022/08/21 05:07:52;;;;;;;4.03;2.70;;;;;;;23.85;57.45;100730.75;5009395;28;20080;-79
2022/08/21 05:10:20;;;;;;;2.67;1.90;;;;;;;24.09;57.86;100768.97;5009218;28;20045;-80
2022/08/21 05:12:46;;;;;;;7.22;2.33;;;;;;;24.01;57.72;100755.69;5008736;28;20142;-80
2022/08/21 05:15:13;;;;;;;2.20;1.75;;;;;;;24.10;57.70;100765.19;5009380;28;20049;-80
2022/08/21 05:17:41;;;;;;;4.18;2.10;;;;;;;24.10;57.58;100771.47;5009489;28;20071;-80
2022/08/21 05:20:10;;;;;;;4.03;2.35;;;;;;;24.18;56.96;100769.53;5008797;28;20049;-80
2022/08/21 05:22:37;;;;;;;4.60;2.13;;;;;;;24.15;57.08;100756.38;5008845;28;20184;-80
2022/08/21 05:25:05;;;;;;;2.83;2.25;;;;;;;24.30;56.43;100770.44;5026816;28;20192;-81
2022/08/21 05:27:36;;;;;;;3.42;2.38;;;;;;;24.35;56.82;100767.88;5010491;28;20045;-82
2022/08/21 05:30:07;;;;;;;5.13;2.45;;;;;;;24.39;56.57;100771.78;5009245;28;20056;-81
2022/08/21 05:32:35;;;;;;;4.03;2.30;;;;;;;24.28;55.97;100740.00;5010252;28;20061;-80
2022/08/21 05:35:04;;;;;;;2.53;2.33;;;;;;;24.47;56.41;100766.13;5006471;28;20670;-80
2022/08/21 05:37:31;;;;;;;3.58;2.03;;;;;;;24.59;54.96;100754.50;5024547;28;20232;-80
2022/08/21 05:39:59;;;;;;;3.22;2.22;;;;;;;24.45;55.50;100743.78;5023233;28;20099;-80
2022/08/21 05:42:46;;;;;;;4.28;2.20;;;;;;;24.61;55.52;100757.84;5023676;28;20111;-79
2022/08/21 05:45:21;;;;;;;3.38;2.30;;;;;;;24.43;55.82;100734.22;5023653;28;20590;-81
2022/08/21 05:48:09;;;;;;;5.60;2.00;;;;;;;24.72;55.81;100762.53;5014339;28;20049;-80
2022/08/21 05:50:37;;;;;;;4.10;2.35;;;;;;;24.79;55.74;100773.31;5012622;28;20049;-80
2022/08/21 05:53:05;;;;;;;5.05;2.22;;;;;;;24.68;55.78;100753.16;5029498;28;20041;-80
2022/08/21 05:55:33;;;;;;;3.15;2.25;;;;;;;24.43;56.08;100707.06;5029139;28;20077;-79
2022/08/21 05:58:00;;;;;;;6.65;2.20;;;;;;;24.63;55.08;100742.97;5028789;28;20046;-79
2022/08/21 06:00:27;;;;;;;4.75;2.40;;;;;;;24.88;55.63;100772.78;5014320;28;20064;-80
2022/08/21 06:02:54;;;;;;;5.28;2.30;;;;;;;24.93;55.28;100772.94;5011871;28;20061;-80
2022/08/21 06:05:20;;;;;;;5.45;2.03;;;;;;;24.94;56.06;100771.88;5012974;28;20076;-80
2022/08/21 06:08:02;;;;;;;5.32;2.38;;;;;;;24.27;55.76;100646.09;5014332;28;20524;-80
2022/08/21 06:10:29;;;;;;;8.15;2.05;;;;;;;25.12;55.40;100775.63;5012839;28;20119;-80
2022/08/21 06:12:55;;;;;;;5.05;2.10;;;;;;;25.00;55.99;100742.13;5029346;28;20077;-80
2022/08/21 06:15:23;;;;;;;2.85;2.00;;;;;;;25.20;55.98;100769.91;5030104;28;20331;-79
2022/08/21 06:17:49;;;;;;;4.85;2.30;;;;;;;24.97;55.28;100727.13;5012292;28;20111;-80
2022/08/21 06:20:16;;;;;;;3.63;2.72;;;;;;;25.04;54.77;100719.72;5008863;28;20053;-80
2022/08/21 06:22:42;;;;;;;3.30;2.45;;;;;;;25.29;55.32;100763.13;4999898;28;20107;-80
2022/08/21 06:25:09;;;;;;;2.25;2.05;;;;;;;25.19;55.12;100735.66;5011987;28;20087;-82
2022/08/21 06:27:37;;;;;;;2.95;2.10;;;;;;;25.49;54.93;100779.13;5029767;28;20057;-80
2022/08/21 06:30:06;;;;;;;3.20;2.42;;;;;;;25.47;54.59;100761.41;5012414;28;20524;-80
2022/08/21 06:32:32;;;;;;;11.95;2.58;;;;;;;25.42;54.19;100747.69;5012522;28;20075;-81
2022/08/21 06:34:59;;;;;;;4.20;2.55;;;;;;;25.62;53.87;100771.84;5012371;28;20073;-80
2022/08/21 06:37:27;;;;;;;9.25;2.78;;;;;;;25.72;53.98;100783.81;5012361;28;20053;-80
2022/08/21 06:39:53;;;;;;;6.43;2.58;;;;;;;25.62;53.61;100756.34;5011433;28;20046;-81
2022/08/21 06:42:20;;;;;;;2.38;2.17;;;;;;;25.84;53.02;100785.72;5011824;28;20325;-81
2022/08/21 06:44:53;;;;;;;3.88;2.35;;;;;;;25.33;53.94;100690.09;5011985;28;20045;-81
2022/08/21 06:47:20;;;;;;;4.60;2.75;;;;;;;25.90;54.00;100773.94;5029508;28;20053;-80
2022/08/21 06:49:47;;;;;;;7.47;2.60;;;;;;;25.65;53.26;100731.41;5028848;28;20062;-80
2022/08/21 06:52:15;;;;;;;4.95;2.40;;;;;;;25.77;52.94;100734.97;5011190;28;20053;-81
2022/08/21 06:54:42;;;;;;;9.80;2.88;;;;;;;25.89;51.72;100734.22;5012295;28;20049;-80
2022/08/21 06:57:08;;;;;;;3.65;2.20;;;;;;;26.21;50.70;100780.94;5012119;28;20115;-80
2022/08/21 06:59:35;;;;;;;2.63;2.25;;;;;;;26.06;50.62;100743.34;5011978;28;20053;-81
2022/08/21 07:02:02;;;;;;;6.55;2.00;;;;;;;25.80;49.40;100688.31;5028211;28;20111;-80
2022/08/21 07:04:29;;;;;;;2.83;1.90;;;;;;;26.41;49.03;100788.78;5028302;28;20301;-80
2022/08/21 07:06:56;;;;;;;4.20;2.22;;;;;;;26.30;48.75;100754.22;5026513;28;20053;-80
2022/08/21 07:09:23;;;;;;;4.07;2.00;;;;;;;26.21;49.10;100735.56;5010113;28;20046;-80
2022/08/21 07:11:53;;;;;;;4.15;2.08;;;;;;;26.54;48.67;100787.75;5027143;28;20053;-80
2022/08/21 07:14:20;;;;;;;2.72;2.42;;;;;;;26.59;48.41;100782.41;5026241;28;20061;-80
2022/08/21 07:16:48;;;;;;;5.15;2.88;;;;;;;26.59;48.76;100783.22;5026807;28;20413;-80
2022/08/21 07:19:14;;;;;;;4.00;2.30;;;;;;;26.57;48.96;100790.81;5011034;28;20053;-79
2022/08/21 07:21:41;;;;;;;6.25;2.30;;;;;;;26.60;49.59;100775.88;5028193;28;20107;-81
2022/08/21 07:24:08;;;;;;;3.58;2.60;;;;;;;26.61;49.26;100785.72;5011350;28;20068;-80
2022/08/21 07:26:35;;;;;;;6.13;2.10;;;;;;;26.48;48.87;100756.81;5010575;28;20069;-78
2022/08/21 07:29:03;;;;;;;3.15;2.42;;;;;;;26.46;48.58;100750.78;5010293;28;20096;-79
2022/08/21 07:31:30;;;;;;;6.47;2.40;;;;;;;26.80;48.78;100783.69;5015924;28;20679;-79
2022/08/21 07:33:57;;;;;;;4.43;2.35;;;;;;;26.86;47.59;100767.19;5017327;28;20049;-80
2022/08/21 07:36:25;;;;;;;2.47;1.90;;;;;;;26.76;47.44;100756.09;5013302;28;20057;-80
2022/08/21 07:38:52;;;;;;;4.53;2.03;;;;;;;27.01;47.02;100783.03;5010482;28;20103;-81
2022/08/21 07:41:23;;;;;;;2.72;2.13;;;;;;;27.01;47.40;100785.75;5027343;28;20052;-81
2022/08/21 07:43:50;;;;;;;5.10;1.70;;;;;;;26.87;47.78;100757.16;5028630;28;20123;-79
2022/08/21 07:46:19;;;;;;;3.08;2.20;;;;;;;26.95;46.72;100759.50;5010525;28;20046;-80
2022/08/21 07:48:46;;;;;;;2.40;2.17;;;;;;;27.07;47.06;100789.44;5026834;28;20655;-80
2022/08/21 07:51:16;;;;;;;2.33;1.85;;;;;;;27.12;46.69;100791.44;5009852;28;20041;-80
2022/08/21 07:53:49;;;;;;;3.00;2.00;;;;;;;27.13;46.86;100787.63;5010746;28;20048;-79
2022/08/21 07:56:16;;;;;;;2.33;1.92;;;;;;;27.20;46.96;100793.78;5026593;28;20448;-79
2022/08/21 07:58:43;;;;;;;3.63;2.10;;;;;;;27.31;46.13;100792.94;5010751;28;20068;-79
2022/08/21 08:01:10;;;;;;;8.25;2.00;;;;;;;27.33;46.20;100788.03;5010807;28;20049;-80
2022/08/21 08:03:37;;;;;;;3.42;2.03;;;;;;;27.20;46.05;100761.09;5026468;28;20057;-79
2022/08/21 08:06:05;;;;;;;2.28;2.08;;;;;;;27.45;45.96;100786.13;5027024;28;20239;-80
2022/08/21 08:08:32;;;;;;;2.78;2.20;;;;;;;27.41;46.28;100784.94;5028102;28;20053;-80
2022/08/21 08:11:00;;;;;;;4.57;2.35;;;;;;;27.38;46.90;100780.00;5010420;28;20301;-79
2022/08/21 08:13:27;;;;;;;2.00;1.85;;;;;;;27.36;47.61;100778.59;5010362;28;20104;-80
2022/08/21 08:15:54;;;;;;;2.75;2.15;;;;;;;27.36;47.60;100787.59;5028286;28;20049;-80
2022/08/21 08:18:20;;;;;;;3.70;2.03;;;;;;;26.79;47.19;100678.53;5010470;28;20140;-79
2022/08/21 08:20:47;;;;;;;3.08;2.25;;;;;;;27.57;47.14;100783.31;5010359;28;20444;-80
2022/08/21 08:23:14;;;;;;;2.45;1.85;;;;;;;27.37;47.33;100759.25;5010178;28;20053;-79
2022/08/21 08:25:41;;;;;;;2.38;2.00;;;;;;;27.36;45.47;100732.25;5028124;28;20249;-81
2022/08/21 08:28:08;;;;;;;3.70;2.35;;;;;;;27.71;45.04;100768.31;5010434;28;20503;-79
2022/08/21 08:30:43;;;;;;;2.55;2.00;;;;;;;27.60;44.98;100757.47;5026677;28;20053;-80
2022/08/21 08:33:10;;;;;;;3.53;2.40;;;;;;;27.64;45.50;100764.91;5010305;28;20100;-79
2022/08/21 08:35:37;;;;;;;2.85;1.77;;;;;;;27.56;45.78;100743.50;5010212;28;20340;-80
2022/08/21 08:38:05;;;;;;;2.75;2.25;;;;;;;27.81;45.54;100762.19;5028079;28;20045;-80
2022/08/21 08:41:23;;;;;;;3.28;2.00;;;;;;;27.84;45.45;100769.94;5026539;28;20083;-80
2022/08/21 08:44:03;;;;;;;2.03;1.85;;;;;;;27.86;45.12;100747.84;4987336;28;20076;-79
2022/08/21 08:46:40;;;;;;;2.30;2.10;;;;;;;27.27;45.39;100660.94;5009949;28;20073;-80
2022/08/21 08:49:19;;;;;;;4.97;2.40;;;;;;;28.05;44.76;100760.16;5010391;28;20072;-80
2022/08/21 08:51:49;;;;;;;5.05;2.30;;;;;;;28.03;44.57;100762.31;5026222;28;20057;-80
2022/08/21 08:54:49;;;;;;;4.07;2.25;;;;;;;28.10;43.08;100759.41;5010586;28;20139;-80
2022/08/21 08:57:20;;;;;;;4.47;2.22;;;;;;;28.16;43.00;100746.66;5009559;28;20073;-81
2022/08/21 08:59:55;;;;;;;2.58;2.08;;;;;;;28.22;42.94;100757.44;5010369;28;20215;-79
2022/08/21 09:02:27;;;;;;;2.25;2.05;;;;;;;28.23;43.04;100753.63;5030704;28;20135;-81
2022/08/21 09:04:54;;;;;;;4.75;2.17;;;;;;;28.16;42.92;100725.69;5009782;28;20049;-81
2022/08/21 09:07:46;;;;;;;4.05;2.22;;;;;;;28.15;42.42;100704.09;5009460;28;20132;-80
2022/08/21 09:10:36;;;;;;;2.97;2.10;;;;;;;28.60;42.68;100758.56;5020464;28;20053;-79
2022/08/21 09:13:28;;;;;;;2.53;2.35;;;;;;;28.92;41.24;100755.13;5022179;28;20413;-80
2022/08/21 09:16:13;;;;;;;3.50;2.00;;;;;;;28.93;41.25;100751.31;5018110;28;20115;-79
2022/08/21 09:18:53;;;;;;;2.55;2.00;;;;;;;29.08;41.23;100751.53;5003329;28;20114;-80
2022/08/21 09:21:36;;;;;;;3.67;2.33;;;;;;;29.16;40.82;100740.13;5036226;28;20052;-80
2022/08/21 09:24:31;;;;;;;9.77;2.88;;;;;;;28.97;40.74;100700.53;5005180;28;20065;-80
2022/08/21 09:27:09;;;;;;;5.03;2.65;;;;;;;29.27;40.89;100751.16;5007867;28;20060;-80
2022/08/21 09:29:40;;;;;;;3.55;2.05;;;;;;;29.44;40.08;100751.06;5009274;28;20057;-80
2022/08/21 09:32:19;;;;;;;4.32;2.35;;;;;;;29.27;40.01;100689.09;5009086;28;20097;-79
2022/08/21 09:35:15;;;;;;;4.32;1.98;;;;;;;29.34;39.99;100688.91;5025772;28;20126;-79
2022/08/21 09:37:56;;;;;;;3.72;2.50;;;;;;;29.76;40.39;100751.97;5015482;28;20540;-87
2022/08/21 09:40:38;;;;;;;3.13;2.50;;;;;;;29.85;39.71;100741.34;5035657;28;20413;-79
2022/08/21 09:43:11;;;;;;;3.25;2.17;;;;;;;29.94;40.23;100749.91;5011135;28;20053;-80
2022/08/21 09:45:42;;;;;;;3.40;2.75;;;;;;;29.99;39.40;100720.66;5025400;28;20490;-81
2022/08/21 09:48:10;;;;;;;2.40;1.90;;;;;;;30.21;39.68;100731.47;5007305;28;20080;-80
2022/08/21 09:50:38;;;;;;;2.88;2.67;;;;;;;30.19;39.60;100687.09;5007266;28;20054;-80
2022/08/21 09:53:14;;;;;;;2.85;2.55;;;;;;;30.49;39.47;100714.94;5006733;28;20053;-80
2022/08/21 09:58:39;;;;;;;3.20;2.50;;;;;;;30.76;39.73;100696.47;5024033;28;20041;-81
2022/08/21 10:01:16;;;;;;;2.08;1.90;;;;;;;31.06;38.99;100717.66;5005995;28;20053;-81
2022/08/21 10:03:43;;;;;;;3.47;2.55;;;;;;;31.06;39.12;100678.47;5003583;28;20485;-80
2022/08/21 10:06:22;;;;;;;3.83;2.42;;;;;;;31.34;38.83;100711.94;5005808;28;20121;-80
2022/08/21 10:08:49;;;;;;;2.80;2.20;;;;;;;31.08;38.36;100643.38;5007972;28;20512;-79
2022/08/21 10:11:23;;;;;;;3.03;2.00;;;;;;;30.55;38.24;100552.28;5008137;28;20481;-80
2022/08/21 10:14:05;;;;;;;3.53;2.47;;;;;;;31.55;37.21;100699.94;5008685;28;20088;-80
2022/08/21 10:16:41;;;;;;;7.97;2.83;;;;;;;31.17;37.71;100614.34;5008969;28;20405;-80
2022/08/21 10:19:25;;;;;;;7.65;2.30;;;;;;;31.88;37.43;100705.97;5009370;28;20046;-80
2022/08/21 10:22:08;;;;;;;2.58;2.38;;;;;;;32.09;37.43;100701.28;5009321;28;20042;-79
2022/08/21 10:24:44;;;;;;;3.90;3.00;;;;;;;32.15;37.08;100684.53;5008616;28;20099;-79
2022/08/21 10:27:35;;;;;;;4.25;2.45;;;;;;;32.36;36.79;100695.47;5006809;28;20061;-79
2022/08/21 10:30:12;;;;;;;;;;;;;;;32.36;35.77;100695.47;5008940;28;20111;-80
2022/08/21 10:33:03;;;;;;;5.72;2.70;;;;;;;32.54;35.66;100697.59;5009308;28;19924;-80
2022/08/21 10:35:33;;;;;;;;;;;;;;;32.64;35.79;100680.25;5009389;28;20108;-80
2022/08/21 10:38:18;;;;;;;6.13;2.35;;;;;;;32.84;35.81;100684.81;5025565;28;19983;-80
2022/08/21 10:41:19;;;;;;;2.67;2.40;;;;;;;33.06;35.01;100680.88;5027762;28;20053;-81
2022/08/21 10:44:23;;;;;;;2.22;2.03;;;;;;;33.16;33.90;100683.56;5012153;28;20085;-79
2022/08/21 10:47:05;;;;;;;4.10;2.10;;;;;;;33.28;34.97;100686.78;5011778;28;20060;-80
2022/08/21 10:49:47;;;;;;;3.75;2.13;;;;;;;33.48;34.87;100682.22;5028664;28;20067;-80
2022/08/21 10:52:54;;;;;;;2.00;1.90;;;;;;;33.51;34.10;100645.88;5029400;28;20053;-80
2022/08/21 10:55:26;;;;;;;2.40;2.20;;;;;;;33.86;33.11;100671.44;4987509;28;20061;-80
2022/08/21 10:58:30;;;;;;;3.33;2.55;;;;;;;33.75;33.95;100626.69;5012232;28;20050;-81
2022/08/21 11:01:11;;;;;;;3.83;2.00;;;;;;;33.71;32.09;100615.41;5005553;28;20053;-82
2022/08/21 11:03:45;;;;;;;5.15;1.95;;;;;;;34.27;31.59;100652.56;5011659;28;20057;-80
2022/08/21 11:06:24;;;;;;;2.78;1.98;;;;;;;34.06;32.18;100610.66;5029391;28;20505;-79
2022/08/21 11:08:57;;;;;;;2.15;1.85;;;;;;;34.07;31.97;100612.28;5011431;28;20049;-81
2022/08/21 11:11:30;;;;;;;3.42;2.10;;;;;;;34.56;31.64;100657.16;5011778;28;20045;-80
2022/08/21 11:14:10;;;;;;;2.58;1.90;;;;;;;34.49;31.45;100616.19;5012504;28;20049;-80
2022/08/21 11:17:03;;;;;;;4.47;1.90;;;;;;;34.66;30.95;100602.75;5011513;28;20049;-79
2022/08/21 11:19:48;;;;;;;5.53;2.35;;;;;;;35.10;30.00;100644.84;5011121;28;20104;-80
2022/08/21 11:22:23;;;;;;;4.82;2.30;;;;;;;34.99;30.54;100624.03;5011200;28;20041;-80
2022/08/21 11:25:09;;;;;;;3.80;2.40;;;;;;;35.22;30.55;100628.69;5012149;28;20053;-80
2022/08/21 11:27:39;;;;;;;4.43;2.17;;;;;;;34.61;31.47;100522.88;5028878;28;20049;-79
2022/08/21 11:30:08;;;;;;;2.63;2.22;;;;;;;35.48;31.47;100642.84;5011667;28;20049;-80
2022/08/21 11:33:02;;;;;;;2.53;2.00;;;;;;;35.52;29.84;100626.50;5028721;28;20088;-80
2022/08/21 11:35:51;;;;;;;3.08;1.92;;;;;;;35.45;29.49;100598.47;5011391;28;20072;-80
2022/08/21 11:38:40;;;;;;;5.28;2.10;;;;;;;35.76;29.16;100637.41;5029083;28;20304;-80
2022/08/21 11:41:07;;;;;;;5.10;2.47;;;;;;;35.71;29.21;100632.00;5027914;28;20103;-80
2022/08/21 11:43:42;;;;;;;2.75;2.17;;;;;;;35.73;29.41;100613.16;5030428;28;20061;-81
2022/08/21 11:46:25;;;;;;;3.80;2.10;;;;;;;35.84;29.10;100603.56;5029042;28;20125;-79
2022/08/21 11:49:00;;;;;;;3.33;2.13;;;;;;;36.23;28.27;100629.88;5027499;28;20092;-80
2022/08/21 11:51:42;;;;;;;2.50;2.30;;;;;;;36.07;28.21;100562.22;5011176;28;20239;-79